createdAt,value
2018-01-20T00:01:01.714Z,1.69
2018-01-20T00:03:29.257Z,1.72
2018-01-20T00:05:56.798Z,1.78
2018-01-20T00:08:24.338Z,1.84
2018-01-20T00:11:03.918Z,1.78
2018-01-20T00:13:31.463Z,1.71
2018-01-20T00:15:59.044Z,1.67
2018-01-20T00:18:26.590Z,1.66
2018-01-20T00:20:54.826Z,1.69
2018-01-20T00:23:22.442Z,1.75
2018-01-20T00:25:57.349Z,1.76
2018-01-20T00:28:24.898Z,1.82
2018-01-20T00:30:52.490Z,1.85
2018-01-20T00:33:20.259Z,1.82
2018-01-20T00:35:47.802Z,1.79
2018-01-20T00:38:15.462Z,1.83
2018-01-20T00:40:43.942Z,1.88
2018-01-20T00:43:11.543Z,1.88
2018-01-20T00:45:39.089Z,1.93
2018-01-20T00:48:07.430Z,1.92
2018-01-20T00:50:34.974Z,1.86
2018-01-20T00:53:02.519Z,1.91
2018-01-20T00:55:30.073Z,1.83
2018-01-20T00:57:57.620Z,2.01
2018-01-20T01:00:26.079Z,1.96
2018-01-20T01:02:54.413Z,1.96
2018-01-20T01:05:21.993Z,1.97
2018-01-20T01:07:49.534Z,1.93
2018-01-20T01:10:18.019Z,1.88
2018-01-20T01:12:45.630Z,1.90
2018-01-20T01:15:14.026Z,1.94
2018-01-20T01:17:42.395Z,1.90
2018-01-20T01:20:09.938Z,1.95
2018-01-20T01:22:37.478Z,1.97
2018-01-20T01:25:05.019Z,1.93
2018-01-20T01:27:32.599Z,1.84
2018-01-20T01:30:00.153Z,1.85
2018-01-20T01:32:28.734Z,1.90
2018-01-20T01:34:56.335Z,1.94
2018-01-20T01:37:23.898Z,1.87
2018-01-20T01:39:51.473Z,1.87
2018-01-20T01:42:19.118Z,1.88
2018-01-20T01:44:46.659Z,1.87
2018-01-20T01:47:14.209Z,1.89
2018-01-20T01:49:41.802Z,1.97
2018-01-20T01:52:09.378Z,1.97
2018-01-20T01:54:36.999Z,1.94
2018-01-20T01:57:04.590Z,1.91
2018-01-20T01:59:32.151Z,1.97
2018-01-20T02:01:59.708Z,1.97
2018-01-20T02:04:27.250Z,1.97
2018-01-20T02:06:54.834Z,1.97
2018-01-20T02:09:22.373Z,1.89
2018-01-20T02:11:49.954Z,1.87
2018-01-20T02:14:17.498Z,1.85
2018-01-20T02:16:45.179Z,1.88
2018-01-20T02:19:12.870Z,1.87
2018-01-20T02:21:40.474Z,1.90
2018-01-20T02:24:08.950Z,1.94
2018-01-20T02:26:36.551Z,1.95
2018-01-20T02:29:04.878Z,1.91
2018-01-20T02:31:32.422Z,1.92
2018-01-20T02:33:59.975Z,1.93
2018-01-20T02:36:28.625Z,2.07
2018-01-20T02:38:57.293Z,2.02
2018-01-20T02:41:25.618Z,2.07
2018-01-20T02:43:53.168Z,2.04
2018-01-20T02:46:20.818Z,2.00
2018-01-20T02:48:48.357Z,2.03
2018-01-20T02:51:16.047Z,2.09
2018-01-20T02:53:43.593Z,1.96
2018-01-20T02:56:11.338Z,2.02
2018-01-20T02:58:38.883Z,1.97
2018-01-20T03:01:07.302Z,1.90
2018-01-20T03:03:34.896Z,1.92
2018-01-20T03:06:02.482Z,1.83
2018-01-20T03:08:30.059Z,1.78
2018-01-20T03:10:57.601Z,1.82
2018-01-20T03:13:25.388Z,1.77
2018-01-20T03:15:52.970Z,1.66
2018-01-20T03:18:20.516Z,1.63
2018-01-20T03:20:48.072Z,1.59
2018-01-20T03:23:15.761Z,1.59
2018-01-20T03:25:43.302Z,1.56
2018-01-20T03:28:10.849Z,1.51
2018-01-20T03:30:38.407Z,1.64
2018-01-20T03:33:06.286Z,1.72
2018-01-20T03:35:34.600Z,1.71
2018-01-20T03:38:02.179Z,1.64
2018-01-20T03:40:29.758Z,1.66
2018-01-20T03:42:57.305Z,1.62
2018-01-20T03:45:24.904Z,1.58
2018-01-20T03:47:52.470Z,1.67
2018-01-20T03:50:20.020Z,1.70
2018-01-20T03:52:47.562Z,1.66
2018-01-20T03:55:15.106Z,1.58
2018-01-20T03:57:42.709Z,1.67
2018-01-20T04:00:11.103Z,1.55
2018-01-20T04:02:38.678Z,1.58
2018-01-20T04:05:06.217Z,1.58
2018-01-20T04:07:33.809Z,1.53
2018-01-20T04:10:01.440Z,1.65
2018-01-20T04:12:29.129Z,1.59
2018-01-20T04:14:57.458Z,1.61
2018-01-20T04:17:25.774Z,1.66
2018-01-20T04:19:53.451Z,1.76
2018-01-20T04:22:20.991Z,1.83
2018-01-20T04:24:48.536Z,1.80
2018-01-20T04:27:16.077Z,1.79
2018-01-20T04:29:43.622Z,1.93
2018-01-20T04:32:11.166Z,1.88
2018-01-20T04:34:38.810Z,1.91
2018-01-20T04:37:06.369Z,1.81
2018-01-20T04:39:33.997Z,1.84
2018-01-20T04:42:01.594Z,1.84
2018-01-20T04:44:29.363Z,1.84
2018-01-20T04:46:56.906Z,1.74
2018-01-20T04:49:24.451Z,1.80
2018-01-20T04:51:52.002Z,1.93
2018-01-20T04:54:19.551Z,1.79
2018-01-20T04:56:47.091Z,1.86
2018-01-20T04:59:14.634Z,1.87
2018-01-20T05:01:42.951Z,1.83
2018-01-20T05:04:10.495Z,1.81
2018-01-20T05:06:38.942Z,1.90
2018-01-20T05:09:07.264Z,1.84
2018-01-20T05:11:35.579Z,1.82
2018-01-20T05:14:03.123Z,1.74
2018-01-20T05:16:30.670Z,1.88
2018-01-20T05:18:58.249Z,1.71
2018-01-20T05:21:25.876Z,1.74
2018-01-20T05:23:53.549Z,1.72
2018-01-20T05:26:21.089Z,1.63
2018-01-20T05:28:48.633Z,1.66
2018-01-20T05:31:16.174Z,1.77
2018-01-20T05:33:43.720Z,1.72
2018-01-20T05:36:11.262Z,1.76
2018-01-20T05:38:39.409Z,1.87
2018-01-20T05:41:06.974Z,1.78
2018-01-20T05:43:35.469Z,1.80
2018-01-20T05:46:03.903Z,1.76
2018-01-20T05:48:31.482Z,1.89
2018-01-20T05:50:59.031Z,1.90
2018-01-20T05:53:26.681Z,1.87
2018-01-20T05:55:54.257Z,1.87
2018-01-20T05:58:21.878Z,1.70
2018-01-20T06:00:49.428Z,1.64
2018-01-20T06:03:16.992Z,1.64
2018-01-20T06:05:44.539Z,1.79
2018-01-20T06:08:12.081Z,1.68
2018-01-20T06:10:39.718Z,1.70
2018-01-20T06:13:07.258Z,1.59
2018-01-20T06:15:35.325Z,1.70
2018-01-20T06:18:02.954Z,1.68
2018-01-20T06:20:30.553Z,1.67
2018-01-20T06:22:58.096Z,1.63
2018-01-20T06:25:25.650Z,1.65
2018-01-20T06:27:53.243Z,1.56
2018-01-20T06:30:20.791Z,1.60
2018-01-20T06:32:48.333Z,1.70
2018-01-20T06:35:15.881Z,1.92
2018-01-20T06:37:43.441Z,1.88
2018-01-20T06:40:11.029Z,1.83
2018-01-20T06:42:38.582Z,1.71
2018-01-20T06:45:06.176Z,1.74
2018-01-20T06:47:33.731Z,1.58
2018-01-20T06:50:01.374Z,1.70
2018-01-20T06:52:28.917Z,1.63
2018-01-20T06:54:56.461Z,1.61
2018-01-20T06:57:24.081Z,1.60
2018-01-20T06:59:52.661Z,1.65
2018-01-20T07:02:21.198Z,1.66
2018-01-20T07:04:48.741Z,1.63
2018-01-20T07:07:16.320Z,1.65
2018-01-20T07:09:43.862Z,1.61
2018-01-20T07:12:11.451Z,1.68
2018-01-20T07:14:39.326Z,1.73
2018-01-20T07:17:06.947Z,1.71
2018-01-20T07:19:34.494Z,1.70
2018-01-20T07:22:02.045Z,1.67
2018-01-20T07:24:29.586Z,1.65
2018-01-20T07:26:57.166Z,1.68
2018-01-20T07:29:24.830Z,1.72
2018-01-20T07:31:52.463Z,1.72
2018-01-20T07:34:20.235Z,1.71
2018-01-20T07:36:47.783Z,1.81
2018-01-20T07:39:15.366Z,1.90
2018-01-20T07:41:42.908Z,1.90
2018-01-20T07:44:10.454Z,1.98
2018-01-20T07:46:38.002Z,2.04
2018-01-20T07:49:05.570Z,2.00
2018-01-20T07:51:33.282Z,1.99
2018-01-20T07:54:00.927Z,2.05
2018-01-20T07:56:28.476Z,1.96
2018-01-20T07:58:56.051Z,1.96
2018-01-20T08:01:23.599Z,2.03
2018-01-20T08:03:51.193Z,2.03
2018-01-20T08:06:18.733Z,2.13
2018-01-20T08:08:46.319Z,2.17
2018-01-20T08:11:13.864Z,2.15
2018-01-20T08:13:42.354Z,2.31
2018-01-20T08:16:10.015Z,2.25
2018-01-20T08:18:38.269Z,2.20
2018-01-20T08:21:05.823Z,2.19
2018-01-20T08:23:33.429Z,2.17
2018-01-20T08:26:00.979Z,2.30
2018-01-20T08:28:28.530Z,2.33
2018-01-20T08:30:56.100Z,2.33
2018-01-20T08:33:23.643Z,2.30
2018-01-20T08:35:51.189Z,2.43
2018-01-20T08:38:18.738Z,2.53
2018-01-20T08:40:46.280Z,2.46
2018-01-20T08:43:13.838Z,2.49
2018-01-20T08:45:41.378Z,2.58
2018-01-20T08:48:08.926Z,2.70
2018-01-20T08:50:36.510Z,2.62
2018-01-20T08:53:04.142Z,2.79
2018-01-20T08:55:31.706Z,2.87
2018-01-20T08:57:59.372Z,3.09
2018-01-20T09:00:26.918Z,2.96
2018-01-20T09:02:54.458Z,3.09
2018-01-20T09:05:22.006Z,3.24
2018-01-20T09:07:49.953Z,3.28
2018-01-20T09:10:17.603Z,3.23
2018-01-20T09:12:45.154Z,3.18
2018-01-20T09:15:12.753Z,3.06
2018-01-20T09:17:40.289Z,3.09
2018-01-20T09:20:07.891Z,3.10
2018-01-20T09:22:35.498Z,3.10
2018-01-20T09:25:03.269Z,3.12
2018-01-20T09:27:30.819Z,3.17
2018-01-20T09:29:58.482Z,3.24
2018-01-20T09:32:26.036Z,3.43
2018-01-20T09:34:54.381Z,3.46
2018-01-20T09:37:22.530Z,3.48
2018-01-20T09:39:50.081Z,3.71
2018-01-20T09:42:17.658Z,3.58
2018-01-20T09:44:45.288Z,3.72
2018-01-20T09:47:12.870Z,3.72
2018-01-20T09:49:41.313Z,3.91
2018-01-20T09:52:09.546Z,3.95
2018-01-20T09:54:38.004Z,3.95
2018-01-20T09:57:06.473Z,3.96
2018-01-20T09:59:34.905Z,4.03
2018-01-20T10:02:02.468Z,3.92
2018-01-20T10:04:30.058Z,4.02
2018-01-20T10:06:57.598Z,3.99
2018-01-20T10:09:26.099Z,4.26
2018-01-20T10:11:53.662Z,4.06
2018-01-20T10:14:21.338Z,3.96
2018-01-20T10:16:48.989Z,4.03
2018-01-20T10:19:16.624Z,4.05
2018-01-20T10:21:44.181Z,4.04
2018-01-20T10:24:11.778Z,3.99
2018-01-20T10:26:39.371Z,4.11
2018-01-20T10:29:06.991Z,4.00
2018-01-20T10:31:34.532Z,4.08
2018-01-20T10:34:02.371Z,4.21
2018-01-20T10:36:29.994Z,4.13
2018-01-20T10:38:57.573Z,4.05
2018-01-20T10:41:25.129Z,4.10
2018-01-20T10:43:52.709Z,3.92
2018-01-20T10:46:20.254Z,3.89
2018-01-20T10:48:47.834Z,3.80
2018-01-20T10:51:15.453Z,3.67
2018-01-20T10:53:43.283Z,3.72
2018-01-20T10:56:10.860Z,3.76
2018-01-20T10:58:39.390Z,3.83
2018-01-20T11:01:06.961Z,3.87
2018-01-20T11:03:34.578Z,3.94
2018-01-20T11:06:02.350Z,3.98
2018-01-20T11:08:30.798Z,4.12
2018-01-20T11:10:58.438Z,4.28
2018-01-20T11:13:26.029Z,4.32
2018-01-20T11:15:53.579Z,4.15
2018-01-20T11:18:21.136Z,4.10
2018-01-20T11:20:48.735Z,4.21
2018-01-20T11:23:16.397Z,4.15
2018-01-20T11:25:43.938Z,4.14
2018-01-20T11:28:11.528Z,4.08
2018-01-20T11:30:39.295Z,4.17
2018-01-20T11:33:06.883Z,4.01
2018-01-20T11:35:34.514Z,3.96
2018-01-20T11:38:02.049Z,4.08
2018-01-20T11:40:29.589Z,4.19
2018-01-20T11:42:57.130Z,4.10
2018-01-20T11:45:24.684Z,4.07
2018-01-20T11:47:52.463Z,3.88
2018-01-20T11:50:20.078Z,3.75
2018-01-20T11:52:47.624Z,3.52
2018-01-20T11:55:16.011Z,3.52
2018-01-20T11:57:43.552Z,3.40
2018-01-20T12:00:12.002Z,3.41
2018-01-20T12:02:40.247Z,3.47
2018-01-20T12:05:07.790Z,3.61
2018-01-20T12:07:35.357Z,3.49
2018-01-20T12:10:02.904Z,3.51
2018-01-20T12:12:30.448Z,3.58
2018-01-20T12:14:57.983Z,3.39
2018-01-20T12:17:25.593Z,3.48
2018-01-20T12:19:53.190Z,3.81
2018-01-20T12:22:20.749Z,4.07
2018-01-20T12:24:48.291Z,4.25
2018-01-20T12:27:16.053Z,4.35
2018-01-20T12:29:44.397Z,4.53
2018-01-20T12:32:11.957Z,4.65
2018-01-20T12:34:39.504Z,4.62
2018-01-20T12:37:07.077Z,4.68
2018-01-20T12:39:34.623Z,4.68
2018-01-20T12:42:02.173Z,4.53
2018-01-20T12:44:29.753Z,4.52
2018-01-20T12:46:57.433Z,4.60
2018-01-20T12:49:24.991Z,4.54
2018-01-20T12:51:53.394Z,4.66
2018-01-20T12:54:21.744Z,4.49
2018-01-20T12:56:50.661Z,4.33
2018-01-20T12:59:19.258Z,4.37
2018-01-20T13:01:48.090Z,4.20
2018-01-20T13:04:15.703Z,4.37
2018-01-20T13:06:43.241Z,4.24
2018-01-20T13:09:10.890Z,4.22
2018-01-20T13:11:40.027Z,4.37
2018-01-20T13:14:08.629Z,4.44
2018-01-20T13:16:43.799Z,4.46
2018-01-20T13:19:17.878Z,4.53
2018-01-20T13:21:48.390Z,4.66
2018-01-20T13:24:22.403Z,4.79
2018-01-20T13:26:54.769Z,4.64
2018-01-20T13:32:14.870Z,4.45
2018-01-20T13:35:07.468Z,4.36
2018-01-20T13:40:47.453Z,4.07
2018-01-20T13:43:17.908Z,3.90
2018-01-20T13:49:05.399Z,3.99
2018-01-20T13:51:35.929Z,4.07
2018-01-20T13:54:05.225Z,4.15
2018-01-20T13:56:34.007Z,4.07
2018-01-20T13:59:03.914Z,4.08
2018-01-20T14:01:33.285Z,4.18
2018-01-20T14:04:03.042Z,4.21
2018-01-20T14:06:31.828Z,4.21
2018-01-20T14:09:00.732Z,4.23
2018-01-20T14:11:28.994Z,4.18
2018-01-20T14:14:06.628Z,4.16
2018-01-20T14:16:45.358Z,4.36
2018-01-20T14:19:13.609Z,4.41
2018-01-20T14:24:38.543Z,4.19
2018-01-20T14:27:12.629Z,4.11
2018-01-20T14:29:45.918Z,3.95
2018-01-20T14:32:15.513Z,3.96
2018-01-20T14:34:51.537Z,3.90
2018-01-20T14:37:21.920Z,3.92
2018-01-20T14:39:52.188Z,3.86
2018-01-20T14:45:07.993Z,3.81
2018-01-20T14:47:46.058Z,3.76
2018-01-20T14:50:15.769Z,3.73
2018-01-20T14:52:45.648Z,3.69
2018-01-20T14:55:21.233Z,3.77
2018-01-20T14:58:04.777Z,3.64
2018-01-20T15:00:39.099Z,3.54
2018-01-20T15:03:17.432Z,3.50
2018-01-20T15:05:50.709Z,3.59
2018-01-20T15:08:19.846Z,3.72
2018-01-20T15:10:47.389Z,3.50
2018-01-20T15:13:15.022Z,3.60
2018-01-20T15:15:42.687Z,3.54
2018-01-20T15:18:10.430Z,3.62
2018-01-20T15:20:38.017Z,3.52
2018-01-20T15:23:05.566Z,3.43
2018-01-20T15:25:33.175Z,3.53
2018-01-20T15:28:00.722Z,3.38
2018-01-20T15:30:28.273Z,3.31
2018-01-20T15:32:55.869Z,3.29
2018-01-20T15:35:23.478Z,3.08
2018-01-20T15:37:51.022Z,3.02
2018-01-20T15:40:18.605Z,2.97
2018-01-20T15:42:46.902Z,3.03
2018-01-20T15:45:15.330Z,2.98
2018-01-20T15:47:42.897Z,3.15
2018-01-20T15:50:10.564Z,3.14
2018-01-20T15:52:38.115Z,3.07
2018-01-20T15:55:05.707Z,2.94
2018-01-20T15:57:33.258Z,2.82
2018-01-20T16:00:00.800Z,2.77
2018-01-20T16:02:28.350Z,2.77
2018-01-20T16:04:55.946Z,2.86
2018-01-20T16:07:23.486Z,2.75
2018-01-20T16:09:51.030Z,2.75
2018-01-20T16:12:18.574Z,2.78
2018-01-20T16:14:46.190Z,2.84
2018-01-20T16:17:14.610Z,2.79
2018-01-20T16:19:43.763Z,2.74
2018-01-20T16:22:15.268Z,2.98
2018-01-20T16:24:43.877Z,2.81
2018-01-20T16:27:11.574Z,2.81
2018-01-20T16:29:39.745Z,2.71
2018-01-20T16:32:07.841Z,2.67
2018-01-20T16:34:35.459Z,2.79
2018-01-20T16:37:03.005Z,2.83
2018-01-20T16:39:31.398Z,2.73
2018-01-20T16:41:58.942Z,2.61
2018-01-20T16:44:26.511Z,2.55
2018-01-20T16:46:54.899Z,2.47
2018-01-20T16:49:22.437Z,2.39
2018-01-20T16:51:50.015Z,2.36
2018-01-20T16:54:17.556Z,2.33
2018-01-20T16:56:45.264Z,2.28
2018-01-20T16:59:12.945Z,2.21
2018-01-20T17:01:40.526Z,2.15
2018-01-20T17:04:08.127Z,2.13
2018-01-20T17:06:35.674Z,2.02
2018-01-20T17:09:03.214Z,1.99
2018-01-20T17:11:30.762Z,2.00
2018-01-20T17:13:58.360Z,2.00
2018-01-20T17:16:26.063Z,2.09
2018-01-20T17:18:53.639Z,2.19
2018-01-20T17:21:21.178Z,2.23
2018-01-20T17:23:49.467Z,2.20
2018-01-20T17:26:17.941Z,2.17
2018-01-20T17:28:46.267Z,2.33
2018-01-20T17:31:13.896Z,2.18
2018-01-20T17:33:41.433Z,2.21
2018-01-20T17:36:09.202Z,2.17
2018-01-20T17:38:36.786Z,2.10
2018-01-20T17:41:04.342Z,1.98
2018-01-20T17:43:31.913Z,1.97
2018-01-20T17:45:59.459Z,1.98
2018-01-20T17:48:27.054Z,2.07
2018-01-20T17:50:54.598Z,2.06
2018-01-20T17:53:22.364Z,1.99
2018-01-20T17:55:49.910Z,1.87
2018-01-20T17:58:18.222Z,1.74
2018-01-20T18:00:45.802Z,1.77
2018-01-20T18:03:13.345Z,1.62
2018-01-20T18:05:40.959Z,1.54
2018-01-20T18:08:08.585Z,1.43
2018-01-20T18:10:36.380Z,1.45
2018-01-20T18:13:03.926Z,1.35
2018-01-20T18:15:31.505Z,1.22
2018-01-20T18:17:59.046Z,1.18
2018-01-20T18:20:26.627Z,1.04
2018-01-20T18:22:55.076Z,0.96
2018-01-20T18:25:22.630Z,0.90
2018-01-20T18:27:50.245Z,0.84
2018-01-20T18:30:17.793Z,0.79
2018-01-20T18:32:46.243Z,0.79
2018-01-20T18:35:13.836Z,0.77
2018-01-20T18:37:41.399Z,0.69
2018-01-20T18:40:08.942Z,0.68
2018-01-20T18:42:36.514Z,0.57
2018-01-20T18:45:05.251Z,0.52
2018-01-20T18:47:32.982Z,0.49
2018-01-20T18:50:00.530Z,0.43
2018-01-20T18:52:28.076Z,0.36
2018-01-20T18:54:55.653Z,0.32
2018-01-20T18:57:23.314Z,0.23
2018-01-20T18:59:50.862Z,0.19
2018-01-20T19:02:18.406Z,0.16
2018-01-20T19:04:46.097Z,0.14
2018-01-20T19:07:13.661Z,0.15
2018-01-20T19:09:41.218Z,0.13
2018-01-20T19:12:08.774Z,0.06
2018-01-20T19:14:36.362Z,0.03
2018-01-20T19:17:03.962Z,-0.01
2018-01-20T19:19:32.125Z,-0.05
2018-01-20T19:21:59.669Z,-0.08
2018-01-20T19:24:27.414Z,-0.09
2018-01-20T19:26:54.970Z,-0.11
2018-01-20T19:29:22.526Z,-0.11
2018-01-20T19:31:50.084Z,-0.08
2018-01-20T19:34:17.642Z,-0.15
2018-01-20T19:36:45.189Z,-0.14
2018-01-20T19:39:12.770Z,-0.11
2018-01-20T19:41:41.411Z,-0.04
2018-01-20T19:44:09.834Z,-0.01
2018-01-20T19:46:38.182Z,-0.01
2018-01-20T19:49:05.737Z,0.00
2018-01-20T19:51:33.298Z,0.02
2018-01-20T19:54:00.895Z,0.02
2018-01-20T19:56:28.451Z,0.07
2018-01-20T19:58:56.075Z,0.01
2018-01-20T20:01:23.635Z,-0.03
2018-01-20T20:03:51.380Z,-0.05
2018-01-20T20:06:18.972Z,0.02
2018-01-20T20:08:46.524Z,0.03
2018-01-20T20:11:14.074Z,-0.04
2018-01-20T20:13:41.630Z,-0.08
2018-01-20T20:16:09.219Z,-0.13
2018-01-20T20:18:36.960Z,-0.15
2018-01-20T20:21:04.521Z,-0.18
2018-01-20T20:23:32.141Z,-0.17
2018-01-20T20:25:59.695Z,-0.18
2018-01-20T20:28:27.294Z,-0.22
2018-01-20T20:30:54.845Z,-0.22
2018-01-20T20:33:22.399Z,-0.28
2018-01-20T20:35:49.953Z,-0.27
2018-01-20T20:38:17.555Z,-0.25
2018-01-20T20:40:45.310Z,-0.27
2018-01-20T20:43:12.871Z,-0.25
2018-01-20T20:45:40.470Z,-0.25
2018-01-20T20:48:12.375Z,-0.22
2018-01-20T20:56:33.048Z,-0.04
2018-01-20T20:59:09.257Z,-0.07
2018-01-20T21:01:43.356Z,-0.11
2018-01-20T21:13:55.004Z,-0.15
2018-01-20T21:16:23.240Z,-0.19
2018-01-20T21:18:55.575Z,-0.25
2018-01-20T21:21:32.130Z,-0.27
2018-01-20T21:24:15.672Z,-0.29
2018-01-20T21:26:45.433Z,-0.30
2018-01-20T21:29:22.519Z,-0.32
2018-01-20T21:31:52.721Z,-0.24
2018-01-20T21:37:20.402Z,-0.32
2018-01-20T21:39:55.933Z,-0.35
2018-01-20T21:42:24.672Z,-0.37
2018-01-20T21:44:57.335Z,-0.35
2018-01-20T21:47:31.320Z,-0.35
2018-01-20T21:49:59.650Z,-0.36
2018-01-20T21:52:35.349Z,-0.37
2018-01-20T22:06:37.683Z,-0.47
2018-01-20T22:09:05.271Z,-0.48
2018-01-20T22:11:32.966Z,-0.47
2018-01-20T22:14:00.529Z,-0.39
2018-01-20T22:16:28.142Z,-0.42
2018-01-20T22:18:55.701Z,-0.43
2018-01-20T22:21:23.353Z,-0.46
2018-01-20T22:23:50.910Z,-0.47
2018-01-20T22:26:18.465Z,-0.47
2018-01-20T22:28:46.058Z,-0.40
2018-01-20T22:31:13.679Z,-0.42
2018-01-20T22:33:41.505Z,-0.42
2018-01-20T22:36:09.137Z,-0.46
2018-01-20T22:38:36.769Z,-0.49
2018-01-20T22:41:04.319Z,-0.44
2018-01-20T22:43:31.924Z,-0.57
2018-01-20T22:45:59.475Z,-0.60
2018-01-20T22:48:28.606Z,-0.64
2018-01-20T22:50:56.199Z,-0.68
2018-01-20T22:53:23.905Z,-0.70
2018-01-20T22:55:51.493Z,-0.68
2018-01-20T22:58:19.054Z,-0.67
2018-01-20T23:00:46.685Z,-0.71
2018-01-20T23:03:14.242Z,-0.75
2018-01-20T23:05:41.799Z,-0.74
2018-01-20T23:08:10.401Z,-0.67
2018-01-20T23:10:38.236Z,-0.74
2018-01-20T23:13:05.786Z,-0.82
2018-01-20T23:15:33.354Z,-0.81
2018-01-20T23:18:00.942Z,-0.71
2018-01-20T23:20:28.494Z,-0.71
2018-01-20T23:22:56.078Z,-0.68
2018-01-20T23:25:23.729Z,-0.72
2018-01-20T23:27:51.326Z,-0.67
2018-01-20T23:30:18.915Z,-0.63
2018-01-20T23:32:47.434Z,-0.82
2018-01-20T23:35:14.989Z,-0.87
2018-01-20T23:37:43.102Z,-0.89
2018-01-20T23:40:10.653Z,-0.93
2018-01-20T23:42:38.211Z,-0.96
2018-01-20T23:45:05.820Z,-0.94
2018-01-20T23:47:33.410Z,-0.95
2018-01-20T23:50:00.961Z,-0.93
2018-01-20T23:52:28.508Z,-0.85
2018-01-20T23:54:56.062Z,-0.85
2018-01-20T23:57:23.627Z,-0.83
2018-01-20T23:59:51.173Z,-0.82
